createdAt,value
2022-10-06T00:00:38.462Z,100927.41
2022-10-06T00:03:05.914Z,100937.38
2022-10-06T00:05:33.576Z,100937.16
2022-10-06T00:08:01.092Z,100942.50
2022-10-06T00:10:27.984Z,100935.84
2022-10-06T00:12:54.891Z,100938.78
2022-10-06T00:15:24.429Z,100944.03
2022-10-06T00:17:51.193Z,100935.50
2022-10-06T00:20:18.375Z,100948.47
2022-10-06T00:22:47.404Z,100942.31
2022-10-06T00:25:19.572Z,100944.28
2022-10-06T00:27:47.929Z,100949.50
2022-10-06T00:30:17.670Z,100948.63
2022-10-06T00:32:51.986Z,100950.31
2022-10-06T00:35:18.930Z,100954.59
2022-10-06T00:37:45.895Z,100952.31
2022-10-06T00:40:12.555Z,100963.16
2022-10-06T00:42:59.282Z,100956.78
2022-10-06T00:45:28.198Z,100960.34
2022-10-06T00:47:58.744Z,100958.53
2022-10-06T00:50:25.491Z,100952.19
2022-10-06T00:52:52.197Z,100952.97
2022-10-06T00:55:20.502Z,100957.69
2022-10-06T00:57:48.536Z,100958.59
2022-10-06T01:00:15.380Z,100967.53
2022-10-06T01:02:49.457Z,100967.69
2022-10-06T01:05:33.050Z,100966.13
2022-10-06T01:07:59.790Z,100964.44
2022-10-06T01:10:26.390Z,100976.72
2022-10-06T01:12:53.132Z,100966.13
2022-10-06T01:15:21.542Z,100967.81
2022-10-06T01:17:58.378Z,100971.25
2022-10-06T01:20:25.335Z,100965.94
2022-10-06T01:22:58.085Z,100973.81
2022-10-06T01:25:24.994Z,100965.03
2022-10-06T01:27:55.991Z,100964.25
2022-10-06T01:30:32.012Z,100964.22
2022-10-06T01:32:58.935Z,100969.56
2022-10-06T01:35:25.526Z,100977.66
2022-10-06T01:37:52.191Z,100977.50
2022-10-06T01:40:19.244Z,100982.72
2022-10-06T01:42:45.914Z,100982.63
2022-10-06T01:45:12.536Z,100989.44
2022-10-06T01:47:39.218Z,100993.91
2022-10-06T01:50:07.175Z,100987.78
2022-10-06T01:52:35.500Z,100994.59
2022-10-06T01:55:02.615Z,100993.88
2022-10-06T01:57:29.215Z,100994.63
2022-10-06T01:59:55.805Z,100992.59
2022-10-06T02:02:22.804Z,100995.31
2022-10-06T02:04:49.417Z,100988.06
2022-10-06T02:07:16.217Z,100994.25
2022-10-06T02:09:42.842Z,100993.22
2022-10-06T02:12:09.508Z,100992.25
2022-10-06T02:14:36.154Z,100994.09
2022-10-06T02:17:02.734Z,100999.34
2022-10-06T02:19:29.359Z,101009.00
2022-10-06T02:21:55.987Z,101005.22
2022-10-06T02:24:22.544Z,101003.19
2022-10-06T02:26:49.119Z,101010.47
2022-10-06T02:29:15.689Z,101008.25
2022-10-06T02:31:42.358Z,101003.97
2022-10-06T02:34:10.096Z,101003.75
2022-10-06T02:36:36.674Z,101005.75
2022-10-06T02:39:03.612Z,101013.50
2022-10-06T02:41:31.090Z,101020.84
2022-10-06T02:43:57.734Z,101029.56
2022-10-06T02:46:24.743Z,101024.06
2022-10-06T02:48:53.754Z,101029.13
2022-10-06T02:51:21.684Z,101028.19
2022-10-06T02:53:49.211Z,101036.00
2022-10-06T02:56:24.080Z,101028.50
2022-10-06T02:58:51.958Z,101033.84
2022-10-06T03:01:21.402Z,101045.88
2022-10-06T03:03:48.310Z,101049.34
2022-10-06T03:06:22.800Z,101053.91
2022-10-06T03:09:05.454Z,101055.28
2022-10-06T03:11:36.924Z,101054.88
2022-10-06T03:14:03.950Z,101071.09
2022-10-06T03:16:41.817Z,101071.50
2022-10-06T03:19:09.443Z,101078.63
2022-10-06T03:21:39.226Z,101095.03
2022-10-06T03:24:05.950Z,101109.38
2022-10-06T03:26:34.843Z,101125.09
2022-10-06T03:29:01.714Z,101130.44
2022-10-06T03:31:29.076Z,101115.41
2022-10-06T03:33:56.766Z,101141.28
2022-10-06T03:36:25.529Z,101134.22
2022-10-06T03:38:52.357Z,101138.91
2022-10-06T03:41:30.044Z,101144.28
2022-10-06T03:43:57.987Z,101138.19
2022-10-06T03:46:26.990Z,101141.75
2022-10-06T03:48:54.234Z,101142.59
2022-10-06T03:51:27.246Z,101153.25
2022-10-06T03:53:54.130Z,101172.09
2022-10-06T03:56:28.406Z,101194.28
2022-10-06T03:59:06.335Z,101191.63
2022-10-06T04:01:42.617Z,101203.19
2022-10-06T04:04:10.163Z,101206.66
2022-10-06T04:06:40.337Z,101202.22
2022-10-06T04:09:15.021Z,101211.09
2022-10-06T04:11:43.503Z,101214.47
2022-10-06T04:14:13.066Z,101217.13
2022-10-06T04:16:45.377Z,101224.34
2022-10-06T04:19:13.525Z,101228.59
2022-10-06T04:21:42.020Z,101225.00
2022-10-06T04:24:10.664Z,101228.44
2022-10-06T04:26:39.623Z,101232.94
2022-10-06T04:29:06.800Z,101237.38
2022-10-06T04:31:37.003Z,101249.66
2022-10-06T04:34:03.945Z,101244.47
2022-10-06T04:36:35.336Z,101255.84
2022-10-06T04:39:04.537Z,101267.22
2022-10-06T04:41:33.195Z,101267.78
2022-10-06T04:44:00.144Z,101267.84
2022-10-06T04:46:44.053Z,101278.06
2022-10-06T04:49:17.990Z,101277.13
2022-10-06T04:51:46.118Z,101289.31
2022-10-06T04:54:12.733Z,101286.91
2022-10-06T04:56:39.358Z,101278.00
2022-10-06T04:59:06.008Z,101293.91
2022-10-06T05:01:34.995Z,101301.88
2022-10-06T05:04:03.344Z,101309.16
2022-10-06T05:06:38.698Z,101310.34
2022-10-06T05:09:15.927Z,101316.41
2022-10-06T05:11:42.815Z,101324.63
2022-10-06T05:14:09.396Z,101334.38
2022-10-06T05:16:38.257Z,101341.34
2022-10-06T05:19:05.258Z,101344.09
2022-10-06T05:24:00.511Z,101353.88
2022-10-06T05:26:29.007Z,101357.50
2022-10-06T05:28:55.850Z,101365.56
2022-10-06T05:31:27.985Z,101371.94
2022-10-06T05:33:55.522Z,101386.88
2022-10-06T05:36:24.042Z,101387.88
2022-10-06T05:38:50.670Z,101391.41
2022-10-06T05:41:19.614Z,101402.94
2022-10-06T05:43:46.684Z,101410.25
2022-10-06T05:46:17.647Z,101418.06
2022-10-06T05:48:48.833Z,101425.38
2022-10-06T05:51:16.478Z,101428.13
2022-10-06T05:53:43.221Z,101433.22
2022-10-06T05:56:12.391Z,101443.88
2022-10-06T05:58:40.483Z,101447.66
2022-10-06T06:01:12.230Z,101452.91
2022-10-06T06:03:39.843Z,101464.31
2022-10-06T06:06:30.757Z,101460.78
2022-10-06T06:09:02.934Z,101470.66
2022-10-06T06:11:31.602Z,101476.09
2022-10-06T06:13:59.920Z,101484.06
2022-10-06T06:16:28.720Z,101501.69
2022-10-06T06:18:55.374Z,101500.00
2022-10-06T06:21:21.950Z,101512.44
2022-10-06T06:23:49.158Z,101513.28
2022-10-06T06:26:18.507Z,101516.00
2022-10-06T06:28:46.503Z,101524.84
2022-10-06T06:31:26.722Z,101533.03
2022-10-06T06:33:56.401Z,101537.38
2022-10-06T06:36:25.424Z,101544.47
2022-10-06T06:38:56.841Z,101540.28
2022-10-06T06:41:28.436Z,101545.47
2022-10-06T06:43:55.752Z,101553.47
2022-10-06T06:46:25.143Z,101561.38
2022-10-06T06:48:53.213Z,101555.25
2022-10-06T06:51:24.255Z,101556.94
2022-10-06T06:53:51.756Z,101564.00
2022-10-06T06:56:19.160Z,101571.84
2022-10-06T06:58:50.159Z,101590.41
2022-10-06T07:01:19.025Z,101597.47
2022-10-06T07:03:58.298Z,101595.50
2022-10-06T07:06:28.693Z,101598.19
2022-10-06T07:08:57.664Z,101610.59
2022-10-06T07:11:26.633Z,101607.81
2022-10-06T07:14:01.701Z,101612.84
2022-10-06T07:16:48.071Z,101618.09
2022-10-06T07:19:34.488Z,101613.50
2022-10-06T07:22:22.164Z,101616.22
2022-10-06T07:25:07.248Z,101622.22
2022-10-06T07:27:38.002Z,101630.81
2022-10-06T07:30:05.597Z,101636.06
2022-10-06T07:32:32.228Z,101635.53
2022-10-06T07:34:58.911Z,101649.63
2022-10-06T07:37:25.943Z,101654.78
2022-10-06T07:39:52.638Z,101658.19
2022-10-06T07:42:19.295Z,101668.78
2022-10-06T07:45:06.704Z,101670.59
2022-10-06T07:47:33.817Z,101676.78
2022-10-06T07:50:00.535Z,101679.47
2022-10-06T07:52:28.890Z,101690.13
2022-10-06T07:54:56.378Z,101693.75
2022-10-06T07:57:23.234Z,101692.78
2022-10-06T07:59:50.679Z,101695.25
2022-10-06T08:02:19.877Z,101703.44
2022-10-06T08:04:46.498Z,101705.88
2022-10-06T08:07:13.084Z,101713.13
2022-10-06T08:09:39.743Z,101712.78
2022-10-06T08:12:26.346Z,101714.53
2022-10-06T08:14:53.110Z,101732.34
2022-10-06T08:17:19.898Z,101717.44
2022-10-06T08:19:48.011Z,101731.47
2022-10-06T08:22:15.986Z,101730.53
2022-10-06T08:25:04.156Z,101741.84
2022-10-06T08:27:29.707Z,101748.94
2022-10-06T08:29:56.715Z,101762.31
2022-10-06T08:32:24.050Z,101764.19
2022-10-06T08:34:51.496Z,101762.53
2022-10-06T08:37:23.822Z,101767.81
2022-10-06T08:39:51.393Z,101775.94
2022-10-06T08:42:24.489Z,101771.34
2022-10-06T08:44:57.444Z,101778.09
2022-10-06T08:47:24.588Z,101781.63
2022-10-06T08:49:54.173Z,101788.38
2022-10-06T08:52:48.440Z,101787.94
2022-10-06T08:55:50.360Z,101789.50
2022-10-06T08:58:38.681Z,101791.28
2022-10-06T09:01:24.347Z,101797.44
2022-10-06T09:03:57.149Z,101797.50
2022-10-06T09:06:45.590Z,101796.63
2022-10-06T09:09:22.693Z,101804.47
2022-10-06T09:12:08.155Z,101805.88
2022-10-06T09:14:42.749Z,101818.13
2022-10-06T09:17:12.809Z,101824.38
2022-10-06T09:19:46.370Z,101824.66
2022-10-06T09:22:21.606Z,101827.22
2022-10-06T09:24:51.197Z,101828.41
2022-10-06T09:27:18.475Z,101827.47
2022-10-06T09:29:45.890Z,101825.78
2022-10-06T09:32:12.863Z,101846.53
2022-10-06T09:34:45.659Z,101841.88
2022-10-06T09:37:13.762Z,101833.13
2022-10-06T09:39:42.377Z,101848.19
2022-10-06T09:42:17.219Z,101837.28
2022-10-06T09:44:52.403Z,101853.06
2022-10-06T09:47:35.940Z,101858.66
2022-10-06T09:50:26.260Z,101853.91
2022-10-06T09:53:03.270Z,101854.63
2022-10-06T09:55:39.039Z,101853.81
2022-10-06T09:58:29.579Z,101870.22
2022-10-06T10:00:58.234Z,101861.00
2022-10-06T10:03:27.941Z,101865.13
2022-10-06T10:05:55.111Z,101862.63
2022-10-06T10:08:22.325Z,101880.09
2022-10-06T10:10:50.363Z,101860.78
2022-10-06T10:13:18.359Z,101870.06
2022-10-06T10:15:55.235Z,101878.81
2022-10-06T10:18:26.761Z,101891.53
2022-10-06T10:20:57.677Z,101881.91
2022-10-06T10:23:31.680Z,101884.22
2022-10-06T10:26:18.153Z,101894.97
2022-10-06T10:29:32.821Z,101903.00
2022-10-06T10:32:12.174Z,101909.63
2022-10-06T10:34:52.891Z,101913.63
2022-10-06T10:37:37.951Z,101907.88
2022-10-06T10:40:12.252Z,101904.38
2022-10-06T10:42:52.523Z,101906.84
2022-10-06T10:45:25.202Z,101913.16
2022-10-06T10:47:52.613Z,101917.75
2022-10-06T10:50:32.471Z,101920.44
2022-10-06T10:53:09.305Z,101915.19
2022-10-06T10:55:41.414Z,101918.22
2022-10-06T10:58:16.446Z,101915.53
2022-10-06T11:00:46.122Z,101920.25
2022-10-06T11:03:13.010Z,101914.63
2022-10-06T11:05:50.177Z,101915.78
2022-10-06T11:08:37.914Z,101939.81
2022-10-06T11:11:12.699Z,101934.47
2022-10-06T11:13:45.932Z,101933.94
2022-10-06T11:16:18.942Z,101939.81
2022-10-06T11:18:48.397Z,101929.13
2022-10-06T11:21:24.139Z,101935.72
2022-10-06T11:24:24.332Z,101938.16
2022-10-06T11:27:09.830Z,101946.00
2022-10-06T11:29:51.622Z,101949.03
2022-10-06T11:32:40.449Z,101943.06
2022-10-06T11:35:17.681Z,101949.72
2022-10-06T11:37:50.048Z,101944.13
2022-10-06T11:40:28.082Z,101955.09
2022-10-06T11:42:55.885Z,101949.69
2022-10-06T11:45:48.503Z,101947.63
2022-10-06T11:48:23.299Z,101947.22
2022-10-06T11:50:53.085Z,101960.13
2022-10-06T11:53:31.769Z,101946.56
2022-10-06T11:56:16.897Z,101947.31
2022-10-06T11:58:55.519Z,101961.06
2022-10-06T12:01:31.294Z,101951.97
2022-10-06T12:04:10.026Z,101956.59
2022-10-06T12:06:45.769Z,101962.91
2022-10-06T12:09:57.451Z,101966.34
2022-10-06T12:12:27.026Z,101963.41
2022-10-06T12:17:08.665Z,101964.88
2022-10-06T12:18:22.856Z,101970.31
2022-10-06T12:20:59.878Z,101970.31
2022-10-06T12:23:34.735Z,101969.88
2022-10-06T12:26:21.846Z,101976.06
2022-10-06T12:29:17.517Z,101970.72
2022-10-06T12:32:02.385Z,101975.25
2022-10-06T12:34:44.466Z,101975.78
2022-10-06T12:37:21.430Z,101976.75
2022-10-06T12:39:48.206Z,101983.78
2022-10-06T12:42:20.214Z,101987.22
2022-10-06T12:44:50.053Z,101993.34
2022-10-06T12:47:38.223Z,101992.56
2022-10-06T12:50:27.774Z,101995.06
2022-10-06T12:53:01.571Z,101999.84
2022-10-06T12:55:51.655Z,101992.41
2022-10-06T12:58:20.651Z,101992.75
2022-10-06T13:00:47.589Z,101989.75
2022-10-06T13:03:17.754Z,101992.09
2022-10-06T13:05:52.852Z,101991.63
2022-10-06T13:08:30.713Z,101999.59
2022-10-06T13:11:16.015Z,101998.59
2022-10-06T13:13:49.267Z,102002.09
2022-10-06T13:16:25.388Z,102002.88
2022-10-06T13:18:54.994Z,102002.22
2022-10-06T13:21:21.922Z,102000.53
2022-10-06T13:23:48.974Z,102008.78
2022-10-06T13:26:22.706Z,102013.31
2022-10-06T13:28:51.843Z,102008.88
2022-10-06T13:31:22.651Z,102022.75
2022-10-06T13:34:05.686Z,102023.16
2022-10-06T13:36:34.319Z,102011.91
2022-10-06T13:39:04.115Z,102019.94
2022-10-06T13:41:31.320Z,102020.56
2022-10-06T13:44:01.268Z,102019.69
2022-10-06T13:46:36.137Z,102020.22
2022-10-06T13:49:21.097Z,102031.50
2022-10-06T13:51:53.935Z,102031.84
2022-10-06T13:54:42.159Z,102031.69
2022-10-06T13:57:39.407Z,102028.56
2022-10-06T14:00:33.019Z,102027.59
2022-10-06T14:03:05.612Z,102028.09
2022-10-06T14:05:38.022Z,102026.84
2022-10-06T14:08:10.881Z,102029.28
2022-10-06T14:10:40.475Z,102039.44
2022-10-06T14:13:31.242Z,102026.66
2022-10-06T14:16:03.791Z,102030.66
2022-10-06T14:18:42.483Z,102037.75
2022-10-06T14:21:45.761Z,102030.59
2022-10-06T14:24:15.333Z,102039.81
2022-10-06T14:26:43.161Z,102038.19
2022-10-06T14:29:10.401Z,102043.78
2022-10-06T14:31:37.081Z,102037.72
2022-10-06T14:34:04.267Z,102043.16
2022-10-06T14:36:32.808Z,102051.13
2022-10-06T14:39:00.187Z,102048.44
2022-10-06T14:41:28.575Z,102047.88
2022-10-06T14:43:56.081Z,102048.84
2022-10-06T14:46:24.467Z,102049.91
2022-10-06T14:48:52.349Z,102048.31
2022-10-06T14:51:19.906Z,102051.91
2022-10-06T14:53:54.395Z,102045.91
2022-10-06T14:56:23.243Z,102053.00
2022-10-06T14:58:50.906Z,102049.00
2022-10-06T15:01:19.202Z,102050.06
2022-10-06T15:03:53.516Z,102047.38
2022-10-06T15:06:38.891Z,102045.69
2022-10-06T15:09:05.878Z,102048.53
2022-10-06T15:11:32.472Z,102047.78
2022-10-06T15:13:59.197Z,102049.97
2022-10-06T15:16:31.170Z,102049.75
2022-10-06T15:19:05.594Z,102044.47
2022-10-06T15:21:35.468Z,102053.53
2022-10-06T15:24:03.849Z,102054.66
2022-10-06T15:26:49.594Z,102055.53
2022-10-06T15:29:16.776Z,102058.50
2022-10-06T15:31:55.367Z,102059.50
2022-10-06T15:34:27.335Z,102061.44
2022-10-06T15:36:55.478Z,102073.25
2022-10-06T15:39:24.193Z,102068.72
2022-10-06T15:41:51.543Z,102071.72
2022-10-06T15:44:19.563Z,102070.88
2022-10-06T15:46:51.019Z,102070.34
2022-10-06T15:49:26.054Z,102074.03
2022-10-06T15:51:57.112Z,102078.88
2022-10-06T15:54:37.950Z,102077.16
2022-10-06T15:57:08.450Z,102078.28
2022-10-06T15:59:35.953Z,102082.03
2022-10-06T16:02:09.836Z,102086.59
2022-10-06T16:04:38.223Z,102079.50
2022-10-06T16:07:10.183Z,102089.44
2022-10-06T16:09:43.399Z,102092.03
2022-10-06T16:12:12.341Z,102088.94
2022-10-06T16:14:39.017Z,102096.22
2022-10-06T16:17:06.766Z,102097.19
2022-10-06T16:19:33.787Z,102103.47
2022-10-06T16:22:00.978Z,102101.97
2022-10-06T16:24:27.589Z,102104.63
2022-10-06T16:26:55.887Z,102111.09
2022-10-06T16:29:22.748Z,102110.38
2022-10-06T16:31:49.886Z,102106.03
2022-10-06T16:34:16.546Z,102116.84
2022-10-06T16:36:43.161Z,102111.56
2022-10-06T16:39:15.751Z,102114.34
2022-10-06T16:41:42.800Z,102118.94
2022-10-06T16:44:09.546Z,102116.31
2022-10-06T16:46:36.172Z,102127.88
2022-10-06T16:49:03.900Z,102122.63
2022-10-06T16:51:33.379Z,102132.38
2022-10-06T16:54:01.794Z,102133.31
2022-10-06T16:56:30.726Z,102125.41
2022-10-06T16:59:00.137Z,102136.03
2022-10-06T17:01:29.431Z,102139.59
2022-10-06T17:04:07.091Z,102136.06
2022-10-06T17:06:39.357Z,102141.41
2022-10-06T17:09:13.843Z,102145.81
2022-10-06T17:11:42.406Z,102146.69
2022-10-06T17:14:09.317Z,102152.00
2022-10-06T17:16:38.057Z,102147.59
2022-10-06T17:19:04.905Z,102148.44
2022-10-06T17:21:49.595Z,102153.75
2022-10-06T17:24:18.319Z,102151.97
2022-10-06T17:26:47.738Z,102159.00
2022-10-06T17:29:21.733Z,102155.44
2022-10-06T17:31:50.750Z,102151.91
2022-10-06T17:34:21.952Z,102159.81
2022-10-06T17:36:51.808Z,102162.44
2022-10-06T17:39:20.562Z,102158.91
2022-10-06T17:41:48.045Z,102157.09
2022-10-06T17:44:23.420Z,102151.81
2022-10-06T17:46:52.622Z,102151.69
2022-10-06T17:49:20.855Z,102156.03
2022-10-06T17:51:49.122Z,102152.50
2022-10-06T17:54:19.120Z,102155.16
2022-10-06T17:56:50.200Z,102166.59
2022-10-06T17:59:22.342Z,102169.13
2022-10-06T18:01:51.267Z,102165.63
2022-10-06T18:04:18.710Z,102165.56
2022-10-06T18:06:46.334Z,102164.66
2022-10-06T18:09:13.016Z,102168.13
2022-10-06T18:11:43.142Z,102171.66
2022-10-06T18:14:21.227Z,102172.47
2022-10-06T18:16:57.495Z,102166.25
2022-10-06T18:19:30.171Z,102172.34
2022-10-06T18:22:00.058Z,102169.66
2022-10-06T18:24:29.368Z,102168.72
2022-10-06T18:26:57.818Z,102164.25
2022-10-06T18:29:28.122Z,102173.03
2022-10-06T18:31:55.642Z,102170.44
2022-10-06T18:37:10.331Z,102168.66
2022-10-06T18:39:36.976Z,102172.06
2022-10-06T18:42:05.350Z,102176.41
2022-10-06T18:44:50.569Z,102175.50
2022-10-06T18:47:35.928Z,102177.25
2022-10-06T18:50:02.527Z,102173.59
2022-10-06T18:52:29.155Z,102177.94
2022-10-06T18:54:55.719Z,102181.31
2022-10-06T18:57:27.275Z,102191.00
2022-10-06T18:59:54.424Z,102193.53
2022-10-06T19:02:21.089Z,102185.69
2022-10-06T19:04:48.443Z,102187.25
2022-10-06T19:07:15.090Z,102188.91
2022-10-06T19:09:46.587Z,102195.03
2022-10-06T19:12:14.072Z,102194.97
2022-10-06T19:14:47.069Z,102203.81
2022-10-06T19:17:14.936Z,102208.88
2022-10-06T19:19:46.192Z,102205.22
2022-10-06T19:22:14.281Z,102206.50
2022-10-06T19:24:44.852Z,102199.16
2022-10-06T19:27:15.127Z,102208.59
2022-10-06T19:29:46.058Z,102203.25
2022-10-06T19:32:18.466Z,102208.50
2022-10-06T19:34:46.800Z,102206.72
2022-10-06T19:37:14.152Z,102202.47
2022-10-06T19:39:44.324Z,102211.13
2022-10-06T19:42:30.642Z,102208.41
2022-10-06T19:44:57.574Z,102211.75
2022-10-06T19:47:24.230Z,102214.28
2022-10-06T19:49:52.033Z,102218.59
2022-10-06T19:52:20.628Z,102216.94
2022-10-06T19:54:47.314Z,102211.50
2022-10-06T19:57:13.936Z,102214.03
2022-10-06T19:59:40.638Z,102211.34
2022-10-06T20:02:09.629Z,102222.75
2022-10-06T20:04:36.712Z,102221.88
2022-10-06T20:07:04.194Z,102220.09
2022-10-06T20:09:34.130Z,102231.50
2022-10-06T20:12:04.275Z,102233.91
2022-10-06T20:14:30.855Z,102229.38
2022-10-06T20:16:57.612Z,102223.94
2022-10-06T20:19:25.504Z,102230.91
2022-10-06T20:21:52.972Z,102240.47
2022-10-06T20:24:22.739Z,102235.22
2022-10-06T20:26:50.666Z,102237.03
2022-10-06T20:29:19.979Z,102233.28
2022-10-06T20:31:48.738Z,102234.09
2022-10-06T20:34:18.548Z,102240.88
2022-10-06T20:36:45.944Z,102239.13
2022-10-06T20:39:33.756Z,102241.91
2022-10-06T20:42:00.732Z,102245.28
2022-10-06T20:44:27.396Z,102246.25
2022-10-06T20:46:54.531Z,102239.06
2022-10-06T20:49:21.688Z,102245.91
2022-10-06T20:51:52.430Z,102246.81
2022-10-06T20:54:20.651Z,102252.16
2022-10-06T20:56:49.372Z,102254.03
2022-10-06T20:59:17.479Z,102253.13
2022-10-06T21:01:44.582Z,102249.38
2022-10-06T21:04:11.530Z,102246.56
2022-10-06T21:06:38.386Z,102251.81
2022-10-06T21:09:06.772Z,102250.16
2022-10-06T21:11:34.362Z,102242.16
2022-10-06T21:14:02.033Z,102249.09
2022-10-06T21:16:32.148Z,102239.41
2022-10-06T21:19:01.480Z,102230.41
2022-10-06T21:21:28.300Z,102240.00
2022-10-06T21:23:55.034Z,102241.91
2022-10-06T21:26:23.593Z,102237.72
2022-10-06T21:28:53.175Z,102232.34
2022-10-06T21:31:21.757Z,102236.44
2022-10-06T21:33:50.444Z,102235.50
2022-10-06T21:36:22.070Z,102237.44
2022-10-06T21:38:51.135Z,102233.72
2022-10-06T21:41:32.145Z,102230.41
2022-10-06T21:44:03.836Z,102224.19
2022-10-06T21:46:39.836Z,102214.38
2022-10-06T21:49:11.082Z,102228.09
2022-10-06T21:51:38.987Z,102222.75
2022-10-06T21:54:05.956Z,102237.63
2022-10-06T21:56:33.619Z,102235.78
2022-10-06T21:59:00.927Z,102235.81
2022-10-06T22:01:29.853Z,102234.94
2022-10-06T22:03:57.636Z,102234.03
2022-10-06T22:06:24.445Z,102220.72
2022-10-06T22:08:51.256Z,102231.31
2022-10-06T22:11:20.311Z,102229.28
2022-10-06T22:13:49.032Z,102229.31
2022-10-06T22:16:18.928Z,102223.16
2022-10-06T22:18:45.978Z,102226.63
2022-10-06T22:21:18.154Z,102224.91
2022-10-06T22:23:46.541Z,102223.25
2022-10-06T22:26:14.735Z,102226.81
2022-10-06T22:28:46.748Z,102228.22
2022-10-06T22:31:14.879Z,102224.66
2022-10-06T22:33:42.172Z,102224.72
2022-10-06T22:36:11.108Z,102217.72
2022-10-06T22:38:38.167Z,102217.66
2022-10-06T22:41:07.479Z,102209.69
2022-10-06T22:43:34.782Z,102205.22
2022-10-06T22:46:01.546Z,102214.59
2022-10-06T22:48:28.620Z,102209.38
2022-10-06T22:50:55.408Z,102206.09
2022-10-06T22:53:24.219Z,102210.31
2022-10-06T22:55:51.415Z,102205.06
2022-10-06T22:58:18.728Z,102198.78
2022-10-06T23:00:45.930Z,102199.50
2022-10-06T23:03:12.744Z,102197.69
2022-10-06T23:05:39.807Z,102193.47
2022-10-06T23:08:07.276Z,102194.78
2022-10-06T23:10:35.005Z,102188.16
2022-10-06T23:13:02.320Z,102190.50
2022-10-06T23:15:29.020Z,102186.97
2022-10-06T23:17:55.769Z,102193.31
2022-10-06T23:20:22.451Z,102186.19
2022-10-06T23:22:49.209Z,102195.53
2022-10-06T23:25:15.977Z,102195.47
2022-10-06T23:27:42.938Z,102197.06
2022-10-06T23:30:10.284Z,102190.19
2022-10-06T23:32:37.641Z,102180.03
2022-10-06T23:35:04.750Z,102182.38
2022-10-06T23:37:31.500Z,102200.44
2022-10-06T23:39:58.232Z,102199.50
2022-10-06T23:42:24.924Z,102191.94
2022-10-06T23:44:51.632Z,102200.53
2022-10-06T23:47:18.354Z,102200.47
2022-10-06T23:49:45.042Z,102205.31
2022-10-06T23:52:11.832Z,102208.56
2022-10-06T23:54:38.526Z,102219.25
2022-10-06T23:57:05.277Z,102213.88
2022-10-06T23:59:31.978Z,102213.00
